Time;durP1;ratioP1;P1;durP2;ratioP2;P2;SDS_P1;SDS_P2;PMS_P1;PMS_P2;Temp;Humidity;BMP_temperature;BMP_pressure;BME280_temperature;BME280_humidity;BME280_pressure;Samples;Min_cycle;Max_cycle;Signal;HPM_P1;HPM_P2
2023/08/28 00:00:28;;;;;;;0.10;0.10;;;;;;;;;;4967338;28;58551;-71
2023/08/28 00:02:54;;;;;;;0.30;0.30;;;;;;;;;;4965039;28;59323;-73
2023/08/28 00:05:19;;;;;;;0.88;0.20;;;;;;;;;;4965278;28;58467;-72
2023/08/28 00:07:44;;;;;;;1.00;0.30;;;;;;;;;;4969120;28;58903;-70
2023/08/28 00:10:09;;;;;;;0.57;0.20;;;;;;;;;;4967240;28;59524;-72
2023/08/28 00:12:39;;;;;;;0.63;0.40;;;;;;;;;;4966456;28;58364;-75
2023/08/28 00:15:05;;;;;;;0.35;0.30;;;;;;;;;;4968624;28;58841;-74
2023/08/28 00:17:30;;;;;;;1.15;0.40;;;;;;;;;;4965860;28;58421;-74
2023/08/28 00:19:55;;;;;;;0.20;0.20;;;;;;;;;;4968424;28;58412;-74
2023/08/28 00:22:21;;;;;;;0.30;0.30;;;;;;;;;;4948570;28;58569;-74
2023/08/28 00:24:46;;;;;;;0.20;0.20;;;;;;;;;;4964286;28;58864;-74
2023/08/28 00:27:11;;;;;;;0.63;0.35;;;;;;;;;;4964922;28;58511;-74
2023/08/28 00:29:36;;;;;;;0.30;0.30;;;;;;;;;;4967289;28;59076;-74
2023/08/28 00:32:02;;;;;;;1.67;0.47;;;;;;;;;;4963776;28;58492;-74
2023/08/28 00:34:27;;;;;;;1.33;0.20;;;;;;;;;;4967390;28;58373;-76
2023/08/28 00:36:52;;;;;;;0.67;0.40;;;;;;;;;;4963214;28;59447;-74
2023/08/28 00:39:17;;;;;;;0.60;0.30;;;;;;;;;;4967660;28;58488;-74
2023/08/28 00:41:42;;;;;;;0.22;0.20;;;;;;;;;;4967931;28;58363;-74
2023/08/28 00:44:08;;;;;;;0.20;0.10;;;;;;;;;;4967279;28;59937;-74
2023/08/28 00:46:33;;;;;;;0.28;0.28;;;;;;;;;;4966587;28;58431;-74
2023/08/28 00:48:58;;;;;;;0.50;0.30;;;;;;;;;;4963375;28;59566;-74
2023/08/28 00:51:23;;;;;;;0.20;0.20;;;;;;;;;;4964520;28;58235;-75
2023/08/28 00:53:48;;;;;;;1.40;0.67;;;;;;;;;;4966988;28;58270;-74
2023/08/28 00:56:14;;;;;;;1.47;0.30;;;;;;;;;;4964414;28;58911;-74
2023/08/28 00:58:39;;;;;;;0.43;0.20;;;;;;;;;;4966722;28;58365;-74
2023/08/28 01:01:05;;;;;;;0.20;0.20;;;;;;;;;;4965211;28;59904;-74
2023/08/28 01:03:30;;;;;;;0.85;0.30;;;;;;;;;;4943568;28;59069;-75
2023/08/28 01:06:13;;;;;;;0.20;0.20;;;;;;;;;;4965021;28;58419;-74
2023/08/28 01:08:44;;;;;;;0.10;0.10;;;;;;;;;;4966605;28;58390;-74
2023/08/28 01:11:28;;;;;;;0.55;0.30;;;;;;;;;;4966830;28;58412;-75
2023/08/28 01:14:13;;;;;;;0.35;0.13;;;;;;;;;;4965681;28;58548;-75
2023/08/28 01:16:40;;;;;;;0.28;0.20;;;;;;;;;;4964365;28;63898;-74
2023/08/28 01:19:08;;;;;;;0.22;0.20;;;;;;;;;;4964215;28;58655;-74
2023/08/28 01:21:33;;;;;;;0.08;0.08;;;;;;;;;;4963390;28;58643;-72
2023/08/28 01:23:59;;;;;;;0.65;0.20;;;;;;;;;;4958264;28;58571;-72
2023/08/28 01:26:25;;;;;;;0.65;0.50;;;;;;;;;;4960702;28;58425;-72
2023/08/28 01:28:50;;;;;;;0.35;0.35;;;;;;;;;;4960177;28;58522;-72
2023/08/28 01:31:15;;;;;;;0.15;0.15;;;;;;;;;;4961392;28;58539;-70
2023/08/28 01:33:41;;;;;;;0.22;0.17;;;;;;;;;;4961960;28;58552;-74
2023/08/28 01:36:19;;;;;;;0.10;0.10;;;;;;;;;;4959227;28;59568;-74
2023/08/28 01:38:48;;;;;;;0.63;0.32;;;;;;;;;;4958452;28;58919;-74
2023/08/28 01:41:17;;;;;;;0.20;0.20;;;;;;;;;;4961861;28;58593;-75
2023/08/28 01:43:47;;;;;;;0.40;0.20;;;;;;;;;;4962624;28;58708;-74
2023/08/28 01:46:12;;;;;;;0.30;0.30;;;;;;;;;;4960531;28;58435;-74
2023/08/28 01:48:41;;;;;;;0.73;0.30;;;;;;;;;;4957261;28;60009;-74
2023/08/28 01:51:06;;;;;;;0.73;0.10;;;;;;;;;;4959092;28;59214;-74
2023/08/28 01:53:31;;;;;;;0.20;0.20;;;;;;;;;;4961833;28;58060;-75
2023/08/28 01:56:13;;;;;;;0.20;0.13;;;;;;;;;;4961175;28;58603;-74
2023/08/28 01:58:43;;;;;;;0.40;0.40;;;;;;;;;;4960982;28;63736;-75
2023/08/28 02:01:08;;;;;;;0.30;0.20;;;;;;;;;;4959391;28;58065;-74
2023/08/28 02:03:33;;;;;;;0.10;0.10;;;;;;;;;;4962226;28;58724;-74
2023/08/28 02:05:58;;;;;;;0.20;0.10;;;;;;;;;;4958552;28;58512;-74
2023/08/28 02:08:24;;;;;;;0.30;0.20;;;;;;;;;;4960292;28;58497;-74
2023/08/28 02:10:49;;;;;;;0.10;0.10;;;;;;;;;;4960179;28;58997;-74
2023/08/28 02:13:14;;;;;;;0.10;0.10;;;;;;;;;;4958493;28;58543;-75
2023/08/28 02:15:39;;;;;;;0.20;0.20;;;;;;;;;;4962291;28;58504;-76
2023/08/28 02:18:05;;;;;;;2.00;0.17;;;;;;;;;;4958809;28;58594;-75
2023/08/28 02:20:30;;;;;;;0.10;0.10;;;;;;;;;;4960171;28;58228;-74
2023/08/28 02:22:55;;;;;;;0.20;0.20;;;;;;;;;;4961604;28;59776;-75
2023/08/28 02:25:23;;;;;;;0.23;0.13;;;;;;;;;;4958650;28;58378;-74
2023/08/28 02:27:48;;;;;;;0.15;0.15;;;;;;;;;;4960697;28;60202;-74
2023/08/28 02:30:13;;;;;;;0.22;0.22;;;;;;;;;;4958423;28;60195;-74
2023/08/28 02:32:39;;;;;;;0.20;0.20;;;;;;;;;;4964025;28;58604;-71
2023/08/28 02:35:04;;;;;;;0.40;0.10;;;;;;;;;;4959828;28;59864;-71
2023/08/28 02:37:29;;;;;;;0.10;0.10;;;;;;;;;;4960412;28;58441;-72
2023/08/28 02:39:54;;;;;;;1.50;0.33;;;;;;;;;;4959348;28;58495;-74
2023/08/28 02:42:20;;;;;;;0.20;0.20;;;;;;;;;;4959144;28;58932;-74
2023/08/28 02:44:45;;;;;;;0.20;0.20;;;;;;;;;;4961562;28;59165;-71
2023/08/28 02:47:10;;;;;;;0.10;0.10;;;;;;;;;;4962703;28;58668;-72
2023/08/28 02:49:35;;;;;;;0.40;0.40;;;;;;;;;;4963204;28;59488;-69
2023/08/28 02:52:00;;;;;;;0.37;0.10;;;;;;;;;;4959907;28;58593;-71
2023/08/28 02:54:26;;;;;;;0.17;0.17;;;;;;;;;;4963971;28;59518;-71
2023/08/28 02:56:51;;;;;;;0.20;0.17;;;;;;;;;;4962170;28;59333;-73
2023/08/28 02:59:16;;;;;;;0.10;0.10;;;;;;;;;;4961054;28;58486;-71
2023/08/28 03:01:41;;;;;;;0.27;0.20;;;;;;;;;;4962122;28;58777;-71
2023/08/28 03:04:07;;;;;;;0.10;0.10;;;;;;;;;;4960351;28;58457;-71
2023/08/28 03:06:35;;;;;;;0.20;0.20;;;;;;;;;;4963766;28;58379;-71
2023/08/28 03:09:00;;;;;;;0.22;0.10;;;;;;;;;;4963428;28;58481;-70
2023/08/28 03:11:26;;;;;;;0.23;0.20;;;;;;;;;;4962543;28;58562;-73
2023/08/28 03:13:51;;;;;;;0.30;0.20;;;;;;;;;;4966519;28;58497;-74
2023/08/28 03:16:16;;;;;;;0.20;0.20;;;;;;;;;;4961292;28;58961;-71
2023/08/28 03:18:41;;;;;;;0.20;0.20;;;;;;;;;;4962462;28;59679;-72
2023/08/28 03:21:06;;;;;;;0.25;0.25;;;;;;;;;;4965308;28;58572;-72
2023/08/28 03:23:31;;;;;;;0.30;0.30;;;;;;;;;;4962598;28;59161;-72
2023/08/28 03:25:57;;;;;;;0.20;0.20;;;;;;;;;;4966461;28;58408;-70
2023/08/28 03:28:22;;;;;;;0.20;0.20;;;;;;;;;;4960295;28;58411;-70
2023/08/28 03:30:47;;;;;;;0.50;0.50;;;;;;;;;;4964021;28;58387;-71
2023/08/28 03:33:12;;;;;;;0.50;0.20;;;;;;;;;;4962625;28;59985;-71
2023/08/28 03:35:37;;;;;;;0.10;0.10;;;;;;;;;;4961693;28;59280;-70
2023/08/28 03:38:03;;;;;;;0.17;0.17;;;;;;;;;;4963388;28;58426;-71
2023/08/28 03:40:28;;;;;;;0.20;0.20;;;;;;;;;;4964842;28;59992;-74
2023/08/28 03:42:53;;;;;;;0.20;0.20;;;;;;;;;;4963169;28;58507;-74
2023/08/28 03:45:18;;;;;;;0.40;0.40;;;;;;;;;;4961129;28;57901;-74
2023/08/28 03:47:43;;;;;;;0.10;0.10;;;;;;;;;;4962719;28;59378;-74
2023/08/28 03:50:09;;;;;;;0.30;0.30;;;;;;;;;;4945055;28;59434;-74
2023/08/28 03:52:34;;;;;;;0.20;0.20;;;;;;;;;;4964952;28;58580;-74
2023/08/28 03:54:59;;;;;;;0.20;0.20;;;;;;;;;;4944640;28;58553;-74
2023/08/28 03:57:25;;;;;;;0.10;0.10;;;;;;;;;;4961599;28;58428;-74
2023/08/28 03:59:50;;;;;;;0.25;0.25;;;;;;;;;;4940688;28;59820;-74
2023/08/28 04:02:15;;;;;;;0.20;0.20;;;;;;;;;;4961142;28;58687;-75
2023/08/28 04:04:41;;;;;;;0.50;0.50;;;;;;;;;;4961311;28;58480;-74
2023/08/28 04:07:07;;;;;;;0.20;0.20;;;;;;;;;;4966531;28;59546;-74
2023/08/28 04:09:32;;;;;;;0.73;0.73;;;;;;;;;;4962178;28;59119;-74
2023/08/28 04:11:57;;;;;;;0.27;0.27;;;;;;;;;;4962246;28;58453;-74
2023/08/28 04:14:23;;;;;;;0.37;0.37;;;;;;;;;;4960948;28;59013;-75
2023/08/28 04:16:49;;;;;;;0.30;0.30;;;;;;;;;;4960637;28;58675;-74
2023/08/28 04:19:14;;;;;;;0.30;0.20;;;;;;;;;;4963175;28;60794;-74
2023/08/28 04:21:39;;;;;;;0.30;0.30;;;;;;;;;;4965041;28;60532;-75
2023/08/28 04:24:05;;;;;;;0.27;0.27;;;;;;;;;;4964066;28;58372;-75
2023/08/28 04:26:30;;;;;;;0.50;0.22;;;;;;;;;;4964993;28;60055;-75
2023/08/28 04:28:55;;;;;;;0.20;0.20;;;;;;;;;;4968212;28;58268;-74
2023/08/28 04:31:21;;;;;;;0.20;0.20;;;;;;;;;;4970990;28;57942;-75
2023/08/28 04:33:46;;;;;;;0.37;0.37;;;;;;;;;;4952576;28;60855;-74
2023/08/28 04:36:11;;;;;;;0.60;0.60;;;;;;;;;;4967284;28;58421;-74
2023/08/28 04:38:36;;;;;;;0.30;0.30;;;;;;;;;;4947740;28;61950;-75
2023/08/28 04:41:02;;;;;;;0.30;0.30;;;;;;;;;;4965835;28;59376;-74
2023/08/28 04:43:27;;;;;;;0.85;0.40;;;;;;;;;;4952628;28;58391;-74
2023/08/28 04:45:53;;;;;;;0.17;0.17;;;;;;;;;;4966986;28;59736;-71
2023/08/28 04:48:18;;;;;;;0.10;0.10;;;;;;;;;;4966381;28;59657;-77
2023/08/28 04:50:43;;;;;;;0.28;0.20;;;;;;;;;;4951349;28;58519;-74
2023/08/28 04:53:08;;;;;;;0.83;0.20;;;;;;;;;;4968302;28;59861;-74
2023/08/28 04:55:36;;;;;;;0.68;0.35;;;;;;;;;;4968798;28;58411;-72
2023/08/28 04:58:01;;;;;;;0.57;0.37;;;;;;;;;;4960400;28;59674;-72
2023/08/28 05:00:27;;;;;;;0.70;0.43;;;;;;;;;;4960990;28;58660;-71
2023/08/28 05:02:52;;;;;;;0.20;0.20;;;;;;;;;;4947739;28;58529;-71
2023/08/28 05:05:17;;;;;;;0.30;0.30;;;;;;;;;;4962587;28;60513;-73
2023/08/28 05:07:42;;;;;;;2.38;0.55;;;;;;;;;;4963095;28;58853;-71
2023/08/28 05:10:09;;;;;;;2.13;0.97;;;;;;;;;;4968517;28;58309;-71
2023/08/28 05:12:34;;;;;;;1.13;0.40;;;;;;;;;;4968393;28;61382;-72
2023/08/28 05:14:59;;;;;;;0.40;0.40;;;;;;;;;;4968989;28;58383;-72
2023/08/28 05:17:24;;;;;;;2.28;0.70;;;;;;;;;;4969161;28;58619;-71
2023/08/28 05:19:49;;;;;;;0.40;0.40;;;;;;;;;;4969603;28;58474;-72
2023/08/28 05:22:14;;;;;;;0.40;0.40;;;;;;;;;;4969169;28;58302;-73
2023/08/28 05:24:40;;;;;;;0.65;0.40;;;;;;;;;;4972841;28;58577;-71
2023/08/28 05:27:05;;;;;;;1.37;0.40;;;;;;;;;;4969794;28;59347;-73
2023/08/28 05:29:30;;;;;;;0.60;0.40;;;;;;;;;;4968849;28;59047;-71
2023/08/28 05:31:55;;;;;;;0.40;0.40;;;;;;;;;;4969862;28;59315;-72
2023/08/28 05:34:20;;;;;;;0.80;0.40;;;;;;;;;;4969954;28;59241;-71
2023/08/28 05:36:46;;;;;;;0.40;0.40;;;;;;;;;;4967771;28;59027;-72
2023/08/28 05:39:11;;;;;;;0.80;0.40;;;;;;;;;;4972296;28;58421;-71
2023/08/28 05:41:36;;;;;;;0.80;0.20;;;;;;;;;;4970491;28;58199;-70
2023/08/28 05:44:01;;;;;;;0.30;0.30;;;;;;;;;;4971600;28;58680;-71
2023/08/28 05:46:26;;;;;;;0.60;0.40;;;;;;;;;;4969956;28;58982;-71
2023/08/28 05:48:52;;;;;;;0.30;0.30;;;;;;;;;;4971511;28;58445;-71
2023/08/28 05:51:17;;;;;;;0.63;0.20;;;;;;;;;;4969542;28;60135;-71
2023/08/28 05:53:42;;;;;;;0.37;0.37;;;;;;;;;;4970312;28;58621;-72
2023/08/28 05:56:07;;;;;;;0.43;0.43;;;;;;;;;;4969457;28;58403;-71
2023/08/28 05:58:32;;;;;;;0.40;0.40;;;;;;;;;;4973074;28;58538;-71
2023/08/28 06:00:57;;;;;;;0.37;0.23;;;;;;;;;;4970504;28;58369;-70
2023/08/28 06:03:23;;;;;;;0.33;0.33;;;;;;;;;;4967172;28;59563;-73
2023/08/28 06:05:48;;;;;;;0.77;0.40;;;;;;;;;;4969427;28;58908;-71
2023/08/28 06:08:15;;;;;;;0.20;0.20;;;;;;;;;;4969556;28;58490;-71
2023/08/28 06:10:42;;;;;;;0.40;0.30;;;;;;;;;;4971054;28;59300;-71
2023/08/28 06:13:07;;;;;;;0.52;0.32;;;;;;;;;;4968683;28;58490;-71
2023/08/28 06:15:32;;;;;;;0.30;0.30;;;;;;;;;;4966358;28;58343;-71
2023/08/28 06:17:57;;;;;;;0.30;0.28;;;;;;;;;;4966978;28;58396;-72
2023/08/28 06:20:23;;;;;;;0.30;0.30;;;;;;;;;;4968834;28;58357;-71
2023/08/28 06:22:48;;;;;;;0.40;0.40;;;;;;;;;;4972194;28;58427;-71
2023/08/28 06:25:13;;;;;;;0.60;0.60;;;;;;;;;;4971426;28;58390;-71
2023/08/28 06:27:38;;;;;;;0.40;0.40;;;;;;;;;;4972973;28;58459;-70
2023/08/28 06:30:04;;;;;;;0.60;0.60;;;;;;;;;;4970877;28;60785;-71
2023/08/28 06:32:29;;;;;;;0.50;0.50;;;;;;;;;;4971695;28;58894;-71
2023/08/28 06:34:54;;;;;;;0.40;0.40;;;;;;;;;;4974190;28;57962;-71
2023/08/28 06:37:19;;;;;;;0.22;0.22;;;;;;;;;;4971164;28;59952;-71
2023/08/28 06:39:44;;;;;;;0.27;0.27;;;;;;;;;;4973659;28;58825;-72
2023/08/28 06:42:10;;;;;;;1.48;0.80;;;;;;;;;;4972892;28;58496;-70
2023/08/28 06:44:35;;;;;;;0.40;0.40;;;;;;;;;;4972725;28;58522;-71
2023/08/28 06:47:00;;;;;;;0.30;0.30;;;;;;;;;;4977038;28;58959;-71
2023/08/28 06:49:25;;;;;;;0.47;0.28;;;;;;;;;;4974815;28;59113;-72
2023/08/28 06:51:50;;;;;;;0.43;0.37;;;;;;;;;;4971670;28;60179;-71
2023/08/28 06:54:15;;;;;;;0.20;0.20;;;;;;;;;;4974561;28;58617;-70
2023/08/28 06:56:40;;;;;;;0.30;0.30;;;;;;;;;;4973436;28;59309;-71
2023/08/28 06:59:06;;;;;;;0.30;0.30;;;;;;;;;;4977893;28;58427;-71
2023/08/28 07:01:31;;;;;;;0.67;0.30;;;;;;;;;;4971388;28;58525;-71
2023/08/28 07:03:56;;;;;;;0.22;0.22;;;;;;;;;;4974485;28;58410;-72
2023/08/28 07:06:21;;;;;;;0.30;0.30;;;;;;;;;;4971070;28;58051;-71
2023/08/28 07:08:46;;;;;;;0.40;0.40;;;;;;;;;;4973228;28;58689;-70
2023/08/28 07:11:11;;;;;;;0.47;0.10;;;;;;;;;;4970841;28;58501;-71
2023/08/28 07:13:37;;;;;;;0.40;0.40;;;;;;;;;;4976161;28;58522;-70
2023/08/28 07:16:02;;;;;;;0.20;0.20;;;;;;;;;;4970918;28;58980;-70
2023/08/28 07:18:27;;;;;;;0.52;0.40;;;;;;;;;;4973129;28;58777;-71
2023/08/28 07:20:53;;;;;;;0.30;0.30;;;;;;;;;;4971614;28;58415;-70
2023/08/28 07:23:18;;;;;;;0.20;0.20;;;;;;;;;;4972861;28;58528;-70
2023/08/28 07:25:44;;;;;;;0.30;0.30;;;;;;;;;;4970304;28;60510;-72
2023/08/28 07:28:09;;;;;;;0.32;0.32;;;;;;;;;;4975133;28;58794;-72
2023/08/28 07:30:35;;;;;;;0.38;0.30;;;;;;;;;;4971209;28;60615;-71
2023/08/28 07:33:00;;;;;;;0.50;0.50;;;;;;;;;;4969227;28;58353;-72
2023/08/28 07:35:29;;;;;;;0.87;0.70;;;;;;;;;;4968696;28;58528;-71
2023/08/28 07:37:54;;;;;;;0.40;0.40;;;;;;;;;;4973700;28;58613;-71
2023/08/28 07:40:19;;;;;;;0.22;0.22;;;;;;;;;;4973271;28;58212;-71
2023/08/28 07:42:44;;;;;;;0.22;0.22;;;;;;;;;;4956136;28;60526;-70
2023/08/28 07:45:09;;;;;;;0.40;0.20;;;;;;;;;;4971589;28;58480;-71
2023/08/28 07:47:35;;;;;;;0.27;0.23;;;;;;;;;;4973823;28;58422;-71
2023/08/28 07:50:00;;;;;;;0.20;0.20;;;;;;;;;;4971040;28;59065;-72
2023/08/28 07:52:25;;;;;;;0.43;0.43;;;;;;;;;;4972420;28;58582;-72
2023/08/28 07:54:50;;;;;;;0.20;0.20;;;;;;;;;;4968044;28;59465;-71
2023/08/28 07:57:15;;;;;;;0.55;0.55;;;;;;;;;;4966335;28;58498;-71
2023/08/28 07:59:41;;;;;;;0.45;0.45;;;;;;;;;;4969735;28;58629;-71
2023/08/28 08:02:07;;;;;;;0.57;0.57;;;;;;;;;;4971080;28;58834;-71
2023/08/28 08:04:32;;;;;;;0.30;0.30;;;;;;;;;;4971569;28;62229;-71
2023/08/28 08:06:58;;;;;;;0.23;0.23;;;;;;;;;;4970133;28;58352;-70
2023/08/28 08:09:23;;;;;;;1.80;0.30;;;;;;;;;;4973387;28;58326;-71
2023/08/28 08:11:48;;;;;;;0.32;0.32;;;;;;;;;;4972884;28;58455;-71
2023/08/28 08:14:13;;;;;;;0.30;0.30;;;;;;;;;;4954025;28;61067;-71
2023/08/28 08:16:38;;;;;;;0.52;0.50;;;;;;;;;;4974420;28;59087;-71
2023/08/28 08:19:04;;;;;;;0.35;0.32;;;;;;;;;;4973816;28;58707;-71
2023/08/28 08:21:29;;;;;;;0.30;0.20;;;;;;;;;;4970923;28;58643;-72
2023/08/28 08:23:55;;;;;;;0.30;0.28;;;;;;;;;;4952077;28;59508;-77
2023/08/28 08:26:20;;;;;;;0.28;0.20;;;;;;;;;;4970171;28;58370;-76
2023/08/28 08:28:46;;;;;;;0.38;0.38;;;;;;;;;;4954183;28;60518;-76
2023/08/28 08:31:11;;;;;;;0.50;0.50;;;;;;;;;;4974149;28;58470;-76
2023/08/28 08:33:38;;;;;;;0.50;0.40;;;;;;;;;;4973869;28;58671;-76
2023/08/28 08:36:03;;;;;;;0.20;0.20;;;;;;;;;;4969446;28;58304;-76
2023/08/28 08:38:29;;;;;;;0.10;0.10;;;;;;;;;;4971776;28;58249;-77
2023/08/28 08:40:58;;;;;;;0.10;0.10;;;;;;;;;;4970805;28;58620;-76
2023/08/28 08:43:25;;;;;;;0.38;0.25;;;;;;;;;;4971539;28;58487;-76
2023/08/28 08:45:52;;;;;;;0.22;0.22;;;;;;;;;;4969880;28;58490;-76
2023/08/28 08:48:17;;;;;;;0.50;0.40;;;;;;;;;;4949329;28;58445;-76
2023/08/28 08:50:46;;;;;;;0.10;0.10;;;;;;;;;;4974140;28;58827;-75
2023/08/28 08:53:23;;;;;;;0.43;0.20;;;;;;;;;;4952769;28;60431;-75
2023/08/28 08:55:49;;;;;;;0.20;0.20;;;;;;;;;;4971871;28;58436;-76
2023/08/28 08:58:15;;;;;;;0.10;0.10;;;;;;;;;;4971353;28;58488;-76
2023/08/28 09:00:43;;;;;;;0.28;0.28;;;;;;;;;;4972756;28;58736;-76
2023/08/28 09:03:08;;;;;;;0.13;0.13;;;;;;;;;;4969771;28;58364;-76
2023/08/28 09:05:34;;;;;;;0.20;0.20;;;;;;;;;;4971690;28;58519;-76
2023/08/28 09:08:00;;;;;;;0.23;0.23;;;;;;;;;;4973430;28;58845;-76
2023/08/28 09:10:26;;;;;;;0.22;0.22;;;;;;;;;;4967134;28;59671;-76
2023/08/28 09:12:51;;;;;;;0.17;0.17;;;;;;;;;;4968829;28;58422;-76
2023/08/28 09:15:17;;;;;;;0.10;0.10;;;;;;;;;;4966766;28;59002;-75
2023/08/28 09:17:42;;;;;;;0.30;0.30;;;;;;;;;;4970661;28;58196;-76
2023/08/28 09:20:08;;;;;;;0.20;0.20;;;;;;;;;;4971634;28;59281;-75
2023/08/28 09:22:33;;;;;;;0.20;0.20;;;;;;;;;;4972811;28;63653;-76
2023/08/28 09:24:59;;;;;;;0.43;0.15;;;;;;;;;;4970653;28;58350;-77
2023/08/28 09:27:24;;;;;;;0.30;0.20;;;;;;;;;;4966499;28;58704;-76
2023/08/28 09:29:50;;;;;;;0.65;0.28;;;;;;;;;;4970876;28;58648;-76
2023/08/28 09:32:15;;;;;;;0.10;0.10;;;;;;;;;;4951033;28;58584;-76
2023/08/28 09:34:40;;;;;;;0.57;0.10;;;;;;;;;;4969441;28;59489;-76
2023/08/28 09:37:09;;;;;;;0.45;0.10;;;;;;;;;;4970376;28;58427;-76
2023/08/28 09:39:37;;;;;;;0.00;0.00;;;;;;;;;;4973886;28;58197;-76
2023/08/28 09:42:04;;;;;;;0.20;0.10;;;;;;;;;;4967858;28;58611;-75
2023/08/28 09:44:31;;;;;;;1.65;0.45;;;;;;;;;;4955218;28;58470;-76
2023/08/28 09:46:57;;;;;;;0.30;0.30;;;;;;;;;;4970805;28;60156;-75
2023/08/28 09:49:24;;;;;;;0.20;0.17;;;;;;;;;;4969355;28;58477;-76
2023/08/28 09:51:50;;;;;;;0.10;0.10;;;;;;;;;;4967567;28;58414;-76
2023/08/28 09:54:15;;;;;;;0.35;0.35;;;;;;;;;;4974125;28;60457;-76
2023/08/28 09:56:41;;;;;;;0.10;0.10;;;;;;;;;;4969030;28;58403;-76
2023/08/28 09:59:06;;;;;;;0.10;0.10;;;;;;;;;;4970030;28;59586;-76
2023/08/28 10:01:33;;;;;;;0.10;0.10;;;;;;;;;;4971564;28;60672;-76
2023/08/28 10:03:59;;;;;;;0.10;0.10;;;;;;;;;;4972533;28;58588;-76
2023/08/28 10:06:25;;;;;;;0.20;0.17;;;;;;;;;;4970252;28;59493;-76
2023/08/28 10:08:51;;;;;;;0.20;0.20;;;;;;;;;;4969155;28;58390;-76
2023/08/28 10:11:17;;;;;;;0.10;0.10;;;;;;;;;;4971721;28;58466;-76
2023/08/28 10:13:42;;;;;;;0.30;0.20;;;;;;;;;;4970540;28;58852;-76
2023/08/28 10:16:10;;;;;;;0.20;0.20;;;;;;;;;;4972337;28;59947;-76
2023/08/28 10:18:48;;;;;;;0.20;0.10;;;;;;;;;;4970942;28;60878;-76
2023/08/28 10:21:14;;;;;;;0.10;0.10;;;;;;;;;;4967299;28;60389;-76
2023/08/28 10:23:40;;;;;;;0.05;0.05;;;;;;;;;;4972620;28;58280;-76
2023/08/28 10:26:06;;;;;;;0.10;0.10;;;;;;;;;;4971251;28;58901;-76
2023/08/28 10:28:32;;;;;;;0.10;0.10;;;;;;;;;;4971169;28;58238;-76
2023/08/28 10:30:57;;;;;;;0.75;0.15;;;;;;;;;;4971660;28;58421;-76
2023/08/28 10:33:22;;;;;;;0.10;0.10;;;;;;;;;;4971117;28;58895;-76
2023/08/28 10:35:50;;;;;;;0.10;0.10;;;;;;;;;;4967093;28;58465;-76
2023/08/28 10:38:16;;;;;;;0.20;0.10;;;;;;;;;;4969568;28;58459;-76
2023/08/28 10:40:41;;;;;;;0.20;0.20;;;;;;;;;;4970461;28;58472;-76
2023/08/28 10:43:07;;;;;;;0.20;0.10;;;;;;;;;;4972731;28;58357;-71
2023/08/28 10:45:35;;;;;;;0.10;0.10;;;;;;;;;;4970451;28;58831;-71
2023/08/28 10:48:00;;;;;;;0.52;0.25;;;;;;;;;;4971043;28;58825;-70
2023/08/28 10:50:33;;;;;;;0.17;0.13;;;;;;;;;;4971915;28;58634;-71
2023/08/28 10:52:58;;;;;;;0.15;0.00;;;;;;;;;;4971765;28;58953;-71
2023/08/28 10:55:23;;;;;;;0.30;0.20;;;;;;;;;;4968929;28;59239;-70
2023/08/28 10:57:49;;;;;;;0.10;0.10;;;;;;;;;;4969999;28;58353;-71
2023/08/28 11:00:15;;;;;;;0.20;0.20;;;;;;;;;;4969724;28;59592;-70
2023/08/28 11:03:10;;;;;;;0.03;0.03;;;;;;;;;;4968778;28;58536;-72
2023/08/28 11:05:36;;;;;;;0.10;0.10;;;;;;;;;;4868802;29;59906;-70
2023/08/28 11:08:04;;;;;;;0.17;0.10;;;;;;;;;;4962108;28;58764;-71
2023/08/28 11:10:29;;;;;;;0.03;0.03;;;;;;;;;;4973465;28;58850;-72
2023/08/28 11:12:56;;;;;;;0.10;0.10;;;;;;;;;;4972755;28;59040;-70
2023/08/28 11:15:28;;;;;;;0.10;0.10;;;;;;;;;;4973901;28;58623;-72
2023/08/28 11:18:12;;;;;;;0.20;0.10;;;;;;;;;;4970680;28;58507;-71
2023/08/28 11:20:38;;;;;;;0.10;0.10;;;;;;;;;;4962036;28;60415;-71
2023/08/28 11:23:03;;;;;;;0.20;0.10;;;;;;;;;;4971488;28;58439;-71
2023/08/28 11:25:39;;;;;;;0.25;0.17;;;;;;;;;;4973116;28;58842;-73
2023/08/28 11:28:22;;;;;;;0.45;0.20;;;;;;;;;;4972723;28;58457;-71
2023/08/28 11:30:50;;;;;;;0.00;0.00;;;;;;;;;;4973137;28;58488;-72
2023/08/28 11:33:18;;;;;;;0.10;0.10;;;;;;;;;;4971356;28;59496;-73
2023/08/28 11:35:43;;;;;;;0.00;0.00;;;;;;;;;;4975056;28;59550;-71
2023/08/28 11:38:08;;;;;;;0.17;0.17;;;;;;;;;;4971828;28;58090;-71
2023/08/28 11:40:34;;;;;;;0.15;0.15;;;;;;;;;;4973742;28;59651;-71
2023/08/28 11:43:03;;;;;;;0.30;0.30;;;;;;;;;;4969655;28;58342;-73
2023/08/28 11:45:29;;;;;;;0.08;0.08;;;;;;;;;;4974054;28;58383;-70
2023/08/28 11:47:54;;;;;;;0.15;0.15;;;;;;;;;;4976604;28;58567;-71
2023/08/28 11:50:19;;;;;;;0.10;0.10;;;;;;;;;;4973335;28;58537;-70
2023/08/28 11:52:50;;;;;;;0.57;0.30;;;;;;;;;;4974633;28;58554;-71
2023/08/28 11:55:16;;;;;;;0.10;0.10;;;;;;;;;;4973443;28;58503;-72
2023/08/28 11:57:45;;;;;;;0.10;0.10;;;;;;;;;;4970222;28;58483;-71
2023/08/28 12:00:14;;;;;;;0.10;0.10;;;;;;;;;;4968259;28;58902;-71
2023/08/28 12:02:46;;;;;;;0.10;0.10;;;;;;;;;;4973187;28;58393;-72
2023/08/28 12:05:17;;;;;;;0.10;0.10;;;;;;;;;;4972079;28;58399;-71
2023/08/28 12:07:43;;;;;;;0.10;0.10;;;;;;;;;;4972449;28;59912;-73
2023/08/28 12:10:13;;;;;;;0.10;0.10;;;;;;;;;;4969324;28;58497;-71
2023/08/28 12:12:38;;;;;;;0.10;0.10;;;;;;;;;;4970183;28;59581;-71
2023/08/28 12:15:05;;;;;;;0.10;0.10;;;;;;;;;;4971198;28;60572;-70
2023/08/28 12:17:31;;;;;;;0.00;0.00;;;;;;;;;;4972155;28;58355;-70
2023/08/28 12:19:56;;;;;;;0.20;0.13;;;;;;;;;;4975750;28;59968;-71
2023/08/28 12:22:21;;;;;;;0.07;0.07;;;;;;;;;;4968474;28;58789;-71
2023/08/28 12:24:47;;;;;;;0.15;0.03;;;;;;;;;;4972519;28;58455;-71
2023/08/28 12:27:14;;;;;;;0.80;0.10;;;;;;;;;;4970455;28;60160;-70
2023/08/28 12:29:43;;;;;;;0.10;0.10;;;;;;;;;;4972866;28;58666;-71
2023/08/28 12:32:15;;;;;;;0.13;0.05;;;;;;;;;;4971903;28;58784;-71
2023/08/28 12:34:43;;;;;;;0.20;0.13;;;;;;;;;;4953165;28;58672;-70
2023/08/28 12:37:13;;;;;;;0.20;0.00;;;;;;;;;;4970591;28;58217;-71
2023/08/28 12:39:49;;;;;;;0.15;0.10;;;;;;;;;;4972436;28;59268;-71
2023/08/28 12:42:16;;;;;;;0.10;0.10;;;;;;;;;;4969281;28;59083;-71
2023/08/28 12:44:44;;;;;;;0.08;0.05;;;;;;;;;;4971252;28;58697;-71
2023/08/28 12:47:14;;;;;;;0.15;0.10;;;;;;;;;;4968595;28;59026;-71
2023/08/28 12:49:40;;;;;;;0.08;0.08;;;;;;;;;;4971698;28;59375;-71
2023/08/28 12:52:05;;;;;;;0.10;0.10;;;;;;;;;;4970068;28;60093;-73
2023/08/28 12:54:31;;;;;;;0.55;0.10;;;;;;;;;;4970008;28;60330;-71
2023/08/28 12:56:56;;;;;;;0.10;0.10;;;;;;;;;;4966724;28;58516;-70
2023/08/28 12:59:22;;;;;;;0.07;0.07;;;;;;;;;;4968447;28;58634;-71
2023/08/28 13:01:47;;;;;;;0.20;0.20;;;;;;;;;;4969720;28;58336;-76
2023/08/28 13:04:13;;;;;;;0.03;0.00;;;;;;;;;;4971132;28;58435;-76
2023/08/28 13:06:38;;;;;;;0.33;0.27;;;;;;;;;;4972209;28;59309;-76
2023/08/28 13:09:03;;;;;;;0.08;0.08;;;;;;;;;;4971122;28;60684;-76
2023/08/28 13:11:29;;;;;;;0.52;0.20;;;;;;;;;;4971845;28;58562;-77
2023/08/28 13:13:54;;;;;;;0.10;0.10;;;;;;;;;;4972985;28;58419;-76
2023/08/28 13:16:19;;;;;;;0.10;0.10;;;;;;;;;;4968598;28;58686;-76
2023/08/28 13:18:45;;;;;;;0.20;0.10;;;;;;;;;;4972760;28;58506;-75
2023/08/28 13:21:10;;;;;;;0.40;0.10;;;;;;;;;;4968255;28;58531;-75
2023/08/28 13:23:36;;;;;;;0.63;0.40;;;;;;;;;;4970165;28;58361;-76
2023/08/28 13:26:01;;;;;;;1.75;0.55;;;;;;;;;;4971714;28;59250;-75
2023/08/28 13:28:26;;;;;;;0.33;0.33;;;;;;;;;;4971994;28;58920;-76
2023/08/28 13:30:51;;;;;;;1.67;0.68;;;;;;;;;;4969699;28;58681;-76
2023/08/28 13:33:16;;;;;;;0.67;0.30;;;;;;;;;;4969595;28;58741;-76
2023/08/28 13:35:42;;;;;;;1.48;0.10;;;;;;;;;;4970027;28;58667;-75
2023/08/28 13:38:07;;;;;;;3.30;0.57;;;;;;;;;;4937330;28;60786;-75
2023/08/28 13:40:32;;;;;;;3.80;0.40;;;;;;;;;;4968457;28;59530;-76
2023/08/28 13:43:02;;;;;;;1.13;0.57;;;;;;;;;;4969864;28;58660;-77
2023/08/28 13:45:28;;;;;;;0.40;0.20;;;;;;;;;;4967610;28;58757;-77
2023/08/28 13:47:53;;;;;;;2.83;0.43;;;;;;;;;;4965669;28;58221;-78
2023/08/28 13:50:18;;;;;;;2.63;0.30;;;;;;;;;;4971130;28;58411;-77
2023/08/28 13:52:45;;;;;;;1.90;0.77;;;;;;;;;;4974705;28;58473;-77
2023/08/28 13:55:10;;;;;;;1.25;0.90;;;;;;;;;;4969355;28;58268;-79
2023/08/28 13:57:35;;;;;;;0.52;0.35;;;;;;;;;;4971717;28;58604;-78
2023/08/28 14:00:01;;;;;;;1.03;0.30;;;;;;;;;;4969839;28;58425;-79
2023/08/28 14:02:26;;;;;;;1.50;0.60;;;;;;;;;;4968883;28;58421;-79
2023/08/28 14:04:52;;;;;;;2.38;0.82;;;;;;;;;;4971125;28;59676;-79
2023/08/28 14:07:17;;;;;;;4.07;0.80;;;;;;;;;;4968125;28;58413;-77
2023/08/28 14:09:42;;;;;;;1.38;0.30;;;;;;;;;;4969886;28;58472;-79
2023/08/28 14:12:07;;;;;;;0.52;0.20;;;;;;;;;;4969135;28;58619;-79
2023/08/28 14:14:33;;;;;;;2.60;0.15;;;;;;;;;;4970523;28;59740;-77
2023/08/28 14:16:58;;;;;;;0.23;0.10;;;;;;;;;;4969836;28;58288;-78
2023/08/28 14:19:23;;;;;;;0.35;0.30;;;;;;;;;;4969761;28;58704;-79
2023/08/28 14:21:48;;;;;;;2.33;0.43;;;;;;;;;;4955388;28;58406;-79
2023/08/28 14:24:14;;;;;;;3.95;0.30;;;;;;;;;;4968927;28;58396;-79
2023/08/28 14:26:39;;;;;;;1.70;0.22;;;;;;;;;;4965739;28;59735;-78
2023/08/28 14:29:04;;;;;;;0.73;0.22;;;;;;;;;;4970699;28;58299;-80
2023/08/28 14:31:30;;;;;;;2.25;0.30;;;;;;;;;;4969764;28;58663;-78
2023/08/28 14:33:55;;;;;;;3.53;0.55;;;;;;;;;;4967326;28;60072;-79
2023/08/28 14:36:20;;;;;;;0.20;0.20;;;;;;;;;;4969435;28;59486;-78